CST,Max TemperatureF,Mean TemperatureF,Min TemperatureF,Max Dew PointF,MeanDew PointF,Min DewpointF,Max Humidity, Mean Humidity, Min Humidity, Max Sea Level PressureIn, Mean Sea Level PressureIn, Min Sea Level PressureIn, Max VisibilityMiles, Mean VisibilityMiles, Min VisibilityMiles, Max Wind SpeedMPH, Mean Wind SpeedMPH, Max Gust SpeedMPH,PrecipitationIn, CloudCover, Events, WindDirDegrees
2012-1-1,28,21,13,19,13,4,73,67,60,30.53,30.28,29.98,10,10,8,32,21,41,T,6,Snow,308
2012-1-2,15,9,2,4,2,-4,80,70,59,30.70,30.59,30.36,10,10,10,22,10,29,0.00,0,,315
2012-1-3,38,25,11,29,15,4,78,70,61,30.31,29.97,29.78,10,10,10,28,16,39,0.00,0,,186
2012-1-4,41,30,18,30,22,15,88,76,64,30.11,30.02,29.92,10,10,10,16,7,18,0.00,0,,225
2012-1-5,55,40,24,36,29,22,88,68,47,29.93,29.68,29.57,10,10,10,23,11,31,0.00,0,,225
2012-1-6,44,37,29,28,25,23,78,66,53,30.01,29.83,29.65,10,10,9,31,14,39,T,4,,301
2012-1-7,40,30,20,26,23,17,88,71,54,30.22,30.11,30.02,10,10,10,13,7,16,0.00,2,,239
2012-1-8,41,29,16,25,20,12,84,66,48,30.22,30.12,29.89,10,10,10,20,10,25,0.00,1,,197
2012-1-9,51,40,28,29,25,20,72,57,41,29.95,29.89,29.84,10,10,10,23,11,29,0.00,0,,242
2012-1-10,51,40,28,34,29,24,78,62,46,29.88,29.74,29.65,10,10,8,23,8,26,0.03,2,Rain,218
2012-1-11,36,21,6,31,10,-2,82,70,58,30.13,29.98,29.72,10,7,0,32,20,41,0.09,7,Rain-Snow,340
2012-1-12,7,3,-1,0,-3,-9,76,69,62,30.16,30.12,30.06,10,7,2,31,18,38,T,6,Snow,345
2012-1-13,15,5,-6,7,-2,-13,76,65,53,30.14,30.03,29.90,10,8,2,14,6,17,0.02,4,Snow,171
2012-1-14,34,24,13,25,14,6,84,77,69,30.03,29.95,29.89,10,7,2,15,8,17,0.03,7,Snow,181
2012-1-15,36,29,21,24,19,14,84,72,59,29.96,29.78,29.65,10,10,10,28,14,38,0.00,1,,179
2012-1-16,22,13,3,12,2,-6,73,66,58,30.30,30.08,29.85,10,9,1,25,17,32,T,5,Snow,344
2012-1-17,4,-1,-6,-7,-10,-13,72,66,59,30.43,30.35,30.21,10,10,9,21,9,25,0.00,1,,356
2012-1-18,9,-2,-14,1,-8,-22,79,69,58,30.17,29.93,29.76,10,6,0,30,13,35,0.02,6,Snow,331
2012-1-19,4,-6,-17,-13,-19,-26,64,54,44,30.26,30.20,30.14,10,10,10,15,9,18,0.00,0,,237
2012-1-20,13,4,-5,-3,-8,-11,72,59,46,30.29,30.22,30.13,10,10,10,9,3,12,0.00,3,,255
2012-1-21,21,9,-4,13,4,-11,79,70,61,30.26,29.86,29.58,10,8,2,31,17,41,T,6,Snow,153
2012-1-22,27,24,21,22,20,15,88,78,68,29.67,29.57,29.50,9,2,0,25,7,33,0.32,8,Fog-Snow,151
2012-1-23,26,16,5,23,14,5,88,81,73,30.03,29.80,29.62,10,5,1,28,15,33,T,7,Rain-Snow,328
2012-1-24,24,11,-2,18,6,-6,87,78,68,30.23,30.13,30.00,10,6,0,17,9,22,0.00,3,Fog,206
2012-1-25,32,27,21,27,24,18,92,82,72,30.19,29.93,29.66,10,3,0,30,17,39,T,7,Fog,172
2012-1-26,38,28,18,27,21,11,81,68,54,29.82,29.76,29.63,10,10,10,23,11,29,0.00,1,,257
2012-1-27,33,25,17,27,20,11,78,66,53,29.98,29.75,29.60,10,7,0,30,15,36,0.02,5,Fog-Snow,269
2012-1-28,25,18,10,19,12,3,81,71,60,30.12,30.00,29.94,10,8,0,17,10,21,0.03,5,Snow,293
2012-1-29,22,7,-8,14,4,-11,86,74,61,30.25,30.07,29.78,10,8,2,20,9,30,0.02,4,Snow,127
2012-1-30,38,30,22,30,22,14,82,76,69,29.75,29.62,29.55,10,10,10,24,10,32,T,4,Rain,160
2012-1-31,37,30,23,28,25,21,88,82,75,29.97,29.76,29.55,10,8,3,24,10,28,0.00,6,,281